createdAt,value
2017-08-29T00:00:26.473Z,15.3
2017-08-29T00:01:25.273Z,15.3
2017-08-29T00:02:24.334Z,15.3
2017-08-29T00:03:23.753Z,15.3
2017-08-29T00:04:23.200Z,15.3
2017-08-29T00:05:22.508Z,15.3
2017-08-29T00:06:21.191Z,15.3
2017-08-29T00:07:20.513Z,15.3
2017-08-29T00:08:19.829Z,15.3
2017-08-29T00:09:19.268Z,15.2
2017-08-29T00:10:18.204Z,15.2
2017-08-29T00:11:17.897Z,15.2
2017-08-29T00:12:16.576Z,15.3
2017-08-29T00:13:16.022Z,15.3
2017-08-29T00:14:15.233Z,15.3
2017-08-29T00:15:14.694Z,15.2
2017-08-29T00:16:13.771Z,15.2
2017-08-29T00:17:13.213Z,15.2
2017-08-29T00:18:12.412Z,15.2
2017-08-29T00:19:11.340Z,15.2
2017-08-29T00:20:10.770Z,15.2
2017-08-29T00:22:09.100Z,15.3
2017-08-29T00:23:08.163Z,15.2
2017-08-29T00:24:07.623Z,15.2
2017-08-29T00:25:07.061Z,15.1
2017-08-29T00:26:05.994Z,15.1
2017-08-29T00:27:05.440Z,15.1
2017-08-29T00:28:04.257Z,15.1
2017-08-29T00:29:03.833Z,15.1
2017-08-29T00:30:02.659Z,15.2
2017-08-29T00:31:02.095Z,15.1
2017-08-29T00:32:01.659Z,15.1
2017-08-29T00:33:00.486Z,15
2017-08-29T00:33:59.806Z,15
2017-08-29T00:34:59.264Z,15
2017-08-29T00:35:58.224Z,15
2017-08-29T00:36:57.265Z,14.9
2017-08-29T00:37:56.947Z,14.9
2017-08-29T00:40:54.682Z,14.8
2017-08-29T00:41:54.000Z,14.8
2017-08-29T00:42:53.071Z,14.8
2017-08-29T00:43:52.635Z,14.8
2017-08-29T00:44:51.456Z,14.8
2017-08-29T00:46:49.782Z,14.7
2017-08-29T00:47:49.090Z,14.7
2017-08-29T00:48:48.402Z,14.6
2017-08-29T00:49:47.606Z,14.6
2017-08-29T00:50:47.052Z,14.6
2017-08-29T00:51:45.991Z,14.6
2017-08-29T00:52:45.308Z,14.6
2017-08-29T00:53:44.863Z,14.6
2017-08-29T00:54:43.676Z,14.6
2017-08-29T00:55:43.387Z,14.6
2017-08-29T00:56:42.330Z,14.6
2017-08-29T00:57:41.028Z,14.6
2017-08-29T00:58:40.482Z,14.6
2017-08-29T00:59:39.913Z,14.6
2017-08-29T01:00:39.366Z,14.6
2017-08-29T01:01:38.056Z,14.5
2017-08-29T01:02:37.624Z,14.5
2017-08-29T01:03:37.198Z,14.6
2017-08-29T01:04:35.755Z,14.6
2017-08-29T01:05:35.337Z,14.5
2017-08-29T01:06:34.782Z,14.5
2017-08-29T01:07:33.475Z,14.5
2017-08-29T01:08:33.180Z,14.5
2017-08-29T01:09:31.995Z,14.5
2017-08-29T01:10:31.427Z,14.5
2017-08-29T01:11:30.485Z,14.5
2017-08-29T01:12:29.922Z,14.4
2017-08-29T01:13:28.974Z,14.4
2017-08-29T01:15:27.439Z,14.4
2017-08-29T01:16:26.772Z,14.4
2017-08-29T01:17:26.220Z,14.4
2017-08-29T01:18:25.298Z,14.3
2017-08-29T01:19:24.487Z,14.3
2017-08-29T01:20:23.298Z,14.3
2017-08-29T01:21:22.989Z,14.3
2017-08-29T01:22:22.305Z,14.3
2017-08-29T01:23:21.243Z,14.3
2017-08-29T01:24:20.679Z,14.3
2017-08-29T01:25:19.376Z,14.3
2017-08-29T01:26:18.698Z,14.3
2017-08-29T01:27:18.142Z,14.3
2017-08-29T01:28:17.448Z,14.3
2017-08-29T01:29:16.786Z,14.3
2017-08-29T01:30:15.611Z,14.3
2017-08-29T01:31:15.064Z,14.3
2017-08-29T01:32:14.627Z,14.4
2017-08-29T01:33:13.304Z,14.4
2017-08-29T01:34:12.738Z,14.3
2017-08-29T01:36:11.320Z,14.4
2017-08-29T01:37:10.638Z,14.3
2017-08-29T01:38:09.438Z,14.3
2017-08-29T01:39:08.904Z,14.3
2017-08-29T01:40:07.845Z,14.3
2017-08-29T01:41:07.153Z,14.4
2017-08-29T01:43:05.606Z,14.3
2017-08-29T01:44:05.174Z,14.3
2017-08-29T01:45:04.235Z,14.3
2017-08-29T01:46:03.563Z,14.3
2017-08-29T01:47:02.496Z,14.3
2017-08-29T01:48:01.426Z,14.4
2017-08-29T01:49:01.239Z,14.4
2017-08-29T01:50:00.184Z,14.4
2017-08-29T01:50:59.753Z,14.4
2017-08-29T01:52:57.959Z,14.3
2017-08-29T01:53:57.393Z,14.3
2017-08-29T01:54:56.323Z,14.3
2017-08-29T01:55:55.510Z,14.3
2017-08-29T01:56:55.069Z,14.2
2017-08-29T01:57:54.005Z,14.3
2017-08-29T01:58:53.334Z,14.2
2017-08-29T01:59:52.774Z,14.2
2017-08-29T02:00:51.731Z,14.1
2017-08-29T02:01:51.045Z,14.2
2017-08-29T02:02:50.243Z,14.1
2017-08-29T02:03:49.694Z,14.1
2017-08-29T02:04:48.884Z,14.2
2017-08-29T02:05:47.572Z,14.1
2017-08-29T02:06:46.631Z,14.3
2017-08-29T02:08:45.329Z,14.3
2017-08-29T02:09:45.016Z,14.1
2017-08-29T02:10:43.947Z,14.1
2017-08-29T02:11:42.754Z,14.1
2017-08-29T02:12:42.073Z,14
2017-08-29T02:13:41.522Z,14
2017-08-29T02:14:40.724Z,14
2017-08-29T02:15:40.041Z,14
2017-08-29T02:16:39.367Z,14
2017-08-29T02:17:38.818Z,14
2017-08-29T02:18:37.748Z,14
2017-08-29T02:19:36.826Z,14
2017-08-29T02:20:36.274Z,13.9
2017-08-29T02:21:35.468Z,14
2017-08-29T02:22:34.267Z,14
2017-08-29T02:23:33.721Z,14
2017-08-29T02:24:33.161Z,13.9
2017-08-29T02:25:32.240Z,13.9
2017-08-29T02:26:31.305Z,13.9
2017-08-29T02:28:29.889Z,13.9
2017-08-29T02:29:28.828Z,13.9
2017-08-29T02:30:28.017Z,13.9
2017-08-29T02:31:27.717Z,14
2017-08-29T02:32:26.770Z,14
2017-08-29T02:33:25.700Z,14
2017-08-29T02:34:24.899Z,14
2017-08-29T02:35:24.470Z,14
2017-08-29T02:36:23.681Z,13.9
2017-08-29T02:37:22.619Z,13.9
2017-08-29T02:38:21.920Z,14
2017-08-29T02:39:20.977Z,13.8
2017-08-29T02:40:20.424Z,13.8
2017-08-29T02:41:19.751Z,13.7
2017-08-29T02:42:18.561Z,13.7
2017-08-29T02:43:17.986Z,13.7
2017-08-29T02:44:17.425Z,13.7
2017-08-29T02:45:16.495Z,13.7
2017-08-29T02:46:15.423Z,13.7
2017-08-29T02:47:14.737Z,13.8
2017-08-29T02:48:13.801Z,13.7
2017-08-29T02:49:13.364Z,13.7
2017-08-29T02:50:12.169Z,13.7
2017-08-29T02:51:11.608Z,13.7
2017-08-29T02:52:10.929Z,13.6
2017-08-29T02:53:09.987Z,13.6
2017-08-29T02:54:09.182Z,13.7
2017-08-29T02:55:08.496Z,13.6
2017-08-29T02:56:07.942Z,13.6
2017-08-29T02:57:06.745Z,13.6
2017-08-29T02:58:05.937Z,13.7
2017-08-29T02:59:05.379Z,13.6
2017-08-29T03:00:04.441Z,13.6
2017-08-29T03:01:03.751Z,13.6
2017-08-29T03:02:02.926Z,13.6
2017-08-29T03:03:02.234Z,13.5
2017-08-29T03:04:01.291Z,13.5
2017-08-29T03:05:00.764Z,13.5
2017-08-29T03:05:59.563Z,13.5
2017-08-29T03:06:58.617Z,13.5
2017-08-29T03:07:57.923Z,13.5
2017-08-29T03:08:57.355Z,13.5
2017-08-29T03:09:56.791Z,13.5
2017-08-29T03:10:55.706Z,13.6
2017-08-29T03:11:55.012Z,13.6
2017-08-29T03:13:53.585Z,13.5
2017-08-29T03:14:52.764Z,13.5
2017-08-29T03:16:50.964Z,13.5
2017-08-29T03:17:50.282Z,13.5
2017-08-29T03:18:49.347Z,13.5
2017-08-29T03:19:49.038Z,13.5
2017-08-29T03:20:47.858Z,13.6
2017-08-29T03:21:47.175Z,13.6
2017-08-29T03:22:46.487Z,13.6
2017-08-29T03:23:45.417Z,13.5
2017-08-29T03:24:44.987Z,13.5
2017-08-29T03:26:43.306Z,13.4
2017-08-29T03:27:42.248Z,13.4
2017-08-29T03:28:41.443Z,13.4
2017-08-29T03:29:41.131Z,13.3
2017-08-29T03:30:40.206Z,13.3
2017-08-29T03:31:39.152Z,13.3
2017-08-29T03:32:38.590Z,13.4
2017-08-29T03:33:37.527Z,13.5
2017-08-29T03:34:36.834Z,13.5
2017-08-29T03:35:35.903Z,13.5
2017-08-29T03:36:35.337Z,13.5
2017-08-29T03:37:34.157Z,13.5
2017-08-29T03:38:33.459Z,13.4
2017-08-29T03:39:32.776Z,13.4
2017-08-29T03:40:31.969Z,13.5
2017-08-29T03:41:31.272Z,13.5
2017-08-29T03:42:30.711Z,13.4
2017-08-29T03:43:29.648Z,13.3
2017-08-29T03:44:28.973Z,13.3
2017-08-29T03:45:27.902Z,13.3
2017-08-29T03:46:27.208Z,13.2
2017-08-29T03:47:26.645Z,13.2
2017-08-29T03:48:26.079Z,13.3
2017-08-29T03:49:25.023Z,13.2
2017-08-29T03:50:24.349Z,13.3
2017-08-29T03:51:23.429Z,13.2
2017-08-29T03:52:22.359Z,13.2
2017-08-29T03:52:52.867Z,13.2
2017-08-29T03:53:23.115Z,13.2
2017-08-29T03:53:53.988Z,13.2
2017-08-29T03:55:20.229Z,13.2
2017-08-29T03:56:19.289Z,13.2
2017-08-29T03:57:18.598Z,13.2
2017-08-29T03:58:17.915Z,13.2
2017-08-29T03:59:16.979Z,13.2
2017-08-29T04:00:16.292Z,13.2
2017-08-29T04:01:15.233Z,13.2
2017-08-29T04:02:14.804Z,13.2
2017-08-29T04:03:13.604Z,13.3
2017-08-29T04:04:12.908Z,13.3
2017-08-29T04:05:12.086Z,13.3
2017-08-29T04:06:11.270Z,13.3
2017-08-29T04:07:10.699Z,13.3
2017-08-29T04:08:09.508Z,13.3
2017-08-29T04:09:08.683Z,13.2
2017-08-29T04:10:08.245Z,13.2
2017-08-29T04:11:07.433Z,13.2
2017-08-29T04:12:06.243Z,13.2
2017-08-29T04:13:05.549Z,13.2
2017-08-29T04:14:05.117Z,13.1
2017-08-29T04:15:04.305Z,13.1
2017-08-29T04:17:02.757Z,13.2
2017-08-29T04:18:01.803Z,13.2
2017-08-29T04:19:01.110Z,13.2
2017-08-29T04:20:00.044Z,13.2
2017-08-29T04:20:59.614Z,13.2
2017-08-29T04:21:58.427Z,13.1
2017-08-29T04:22:57.991Z,13.1
2017-08-29T04:23:28.231Z,13.1
2017-08-29T04:23:58.236Z,13.1
2017-08-29T04:24:28.973Z,13.1
2017-08-29T04:25:55.461Z,13.2
2017-08-29T04:26:54.755Z,13.2
2017-08-29T04:27:53.811Z,13.3
2017-08-29T04:28:52.994Z,13.3
2017-08-29T04:29:52.181Z,13.3
2017-08-29T04:30:51.619Z,13.3
2017-08-29T04:31:50.422Z,13.2
2017-08-29T04:32:49.859Z,13.1
2017-08-29T04:33:49.305Z,13.2
2017-08-29T04:34:48.374Z,13.2
2017-08-29T04:35:47.309Z,13.2
2017-08-29T04:36:46.632Z,13.1
2017-08-29T04:37:46.091Z,13.1
2017-08-29T04:38:44.784Z,13.1
2017-08-29T04:39:44.093Z,13.1
2017-08-29T04:40:43.277Z,13.1
2017-08-29T04:41:42.585Z,13
2017-08-29T04:42:41.897Z,13
2017-08-29T04:43:41.205Z,13
2017-08-29T04:44:11.331Z,13
2017-08-29T04:45:39.450Z,13.1
2017-08-29T04:46:38.773Z,13.1
2017-08-29T04:47:38.211Z,13.1
2017-08-29T04:48:37.279Z,13.1
2017-08-29T04:49:36.212Z,13.2
2017-08-29T04:50:35.523Z,13.2
2017-08-29T04:51:34.448Z,13.2
2017-08-29T04:52:33.628Z,13.2
2017-08-29T04:53:33.187Z,13.3
2017-08-29T04:54:32.514Z,13.4
2017-08-29T04:55:31.067Z,13.5
2017-08-29T04:56:30.636Z,13.6
2017-08-29T04:57:29.958Z,13.6
2017-08-29T04:58:29.251Z,13.6
2017-08-29T04:59:28.301Z,13.6
2017-08-29T05:00:27.729Z,13.6
2017-08-29T05:01:26.678Z,13.6
2017-08-29T05:02:26.244Z,13.6
2017-08-29T05:03:25.049Z,13.6
2017-08-29T05:04:24.345Z,13.5
2017-08-29T05:05:23.650Z,13.5
2017-08-29T05:06:22.842Z,13.5
2017-08-29T05:07:22.011Z,13.5
2017-08-29T05:08:21.321Z,13.5
2017-08-29T05:09:20.628Z,13.5
2017-08-29T05:10:19.315Z,13.5
2017-08-29T05:11:18.862Z,13.5
2017-08-29T05:12:18.046Z,13.5
2017-08-29T05:13:17.353Z,13.5
2017-08-29T05:14:16.406Z,13.6
2017-08-29T05:15:15.722Z,13.6
2017-08-29T05:16:15.028Z,13.6
2017-08-29T05:17:13.698Z,13.6
2017-08-29T05:18:13.008Z,13.8
2017-08-29T05:19:12.324Z,13.8
2017-08-29T05:21:11.025Z,13.8
2017-08-29T05:22:09.582Z,13.8
2017-08-29T05:23:09.030Z,13.8
2017-08-29T05:24:08.225Z,13.8
2017-08-29T05:25:07.666Z,13.8
2017-08-29T05:26:07.112Z,13.8
2017-08-29T05:27:06.052Z,13.8
2017-08-29T05:28:05.241Z,14
2017-08-29T05:29:04.810Z,14
2017-08-29T05:30:03.608Z,14.1
2017-08-29T05:31:02.914Z,14.1
2017-08-29T05:32:02.106Z,14.3
2017-08-29T05:34:00.550Z,14.5
2017-08-29T05:34:59.858Z,14.6
2017-08-29T05:35:59.308Z,14.8
2017-08-29T05:36:58.106Z,15
2017-08-29T05:37:57.666Z,15.2
2017-08-29T05:38:56.219Z,15.5
2017-08-29T05:39:55.651Z,15.5
2017-08-29T05:40:54.843Z,15.5
2017-08-29T05:41:54.154Z,15.8
2017-08-29T05:43:52.596Z,16.1
2017-08-29T05:44:51.689Z,16.2
2017-08-29T05:45:50.992Z,16.3
2017-08-29T05:46:50.295Z,16.5
2017-08-29T05:47:49.475Z,16.6
2017-08-29T05:48:48.779Z,16.8
2017-08-29T05:49:47.466Z,16.8
2017-08-29T05:50:47.025Z,16.9
2017-08-29T05:51:45.957Z,17
2017-08-29T05:52:45.271Z,17.1
2017-08-29T05:53:44.459Z,17.2
2017-08-29T05:54:43.896Z,17.3
2017-08-29T05:55:43.336Z,17.5
2017-08-29T05:56:42.133Z,17.7
2017-08-29T05:57:41.186Z,17.7
2017-08-29T05:58:11.924Z,17.7
2017-08-29T05:58:41.928Z,17.7
2017-08-29T05:59:40.095Z,18
2017-08-29T06:00:39.153Z,18.1
2017-08-29T06:01:38.340Z,18.2
2017-08-29T06:02:37.937Z,18.3
2017-08-29T06:03:36.747Z,18.3
2017-08-29T06:04:35.933Z,18.5
2017-08-29T06:05:35.367Z,18.6
2017-08-29T06:06:34.465Z,18.6
2017-08-29T06:07:33.903Z,18.6
2017-08-29T06:08:04.656Z,18.6
2017-08-29T06:08:34.670Z,18.5
2017-08-29T06:09:05.541Z,18.5
2017-08-29T06:09:35.795Z,18.5
2017-08-29T06:10:06.196Z,18.5
2017-08-29T06:10:36.339Z,18.6
2017-08-29T06:11:06.856Z,18.6
2017-08-29T06:12:29.952Z,18.7
2017-08-29T06:13:28.754Z,18.7
2017-08-29T06:14:28.056Z,18.9
2017-08-29T06:15:27.495Z,18.9
2017-08-29T06:16:26.580Z,19
2017-08-29T06:17:25.659Z,19.3
2017-08-29T06:19:24.242Z,19.4
2017-08-29T06:20:23.440Z,19.4
2017-08-29T06:21:22.618Z,19.3
2017-08-29T06:22:21.918Z,19.3
2017-08-29T06:23:20.851Z,19.3
2017-08-29T06:24:20.167Z,19.4
2017-08-29T06:25:19.596Z,19.5
2017-08-29T06:26:18.529Z,19.5
2017-08-29T06:27:17.846Z,19.5
2017-08-29T06:28:17.155Z,19.4
2017-08-29T06:29:16.208Z,19.5
2017-08-29T06:30:15.518Z,19.6
2017-08-29T06:31:15.081Z,19.8
2017-08-29T06:32:13.885Z,19.8
2017-08-29T06:33:13.572Z,19.8
2017-08-29T06:34:12.498Z,20
2017-08-29T06:35:11.808Z,20.1
2017-08-29T06:36:10.495Z,20.1
2017-08-29T06:37:09.812Z,20.1
2017-08-29T06:38:09.248Z,20.3
2017-08-29T06:39:08.808Z,20.2
2017-08-29T06:40:07.618Z,20.3
2017-08-29T06:41:06.809Z,20.4
2017-08-29T06:42:06.113Z,20.5
2017-08-29T06:43:05.565Z,20.6
2017-08-29T06:44:04.492Z,20.5
2017-08-29T06:45:03.682Z,20.5
2017-08-29T06:46:03.249Z,20.5
2017-08-29T06:47:02.808Z,20.8
2017-08-29T06:48:01.613Z,21
2017-08-29T06:49:00.698Z,21
2017-08-29T06:49:30.831Z,21
2017-08-29T06:50:01.208Z,21
2017-08-29T06:50:59.015Z,21.1
2017-08-29T06:51:58.322Z,21.3
2017-08-29T06:52:57.759Z,21.2
2017-08-29T06:53:57.068Z,21.1
2017-08-29T06:54:55.995Z,21
2017-08-29T06:55:55.468Z,21
2017-08-29T06:56:55.026Z,21.1
2017-08-29T06:57:53.699Z,21.1
2017-08-29T06:58:53.260Z,21.1
2017-08-29T06:59:52.435Z,21.1
2017-08-29T07:00:22.550Z,21.1
2017-08-29T07:00:52.544Z,21.1
2017-08-29T07:01:23.302Z,21.1
2017-08-29T07:02:50.291Z,21.3
2017-08-29T07:03:49.230Z,21.2
2017-08-29T07:04:48.650Z,21.1
2017-08-29T07:06:46.977Z,21.2
2017-08-29T07:07:46.542Z,21
2017-08-29T07:08:45.730Z,21.1
2017-08-29T07:09:44.661Z,21.2
2017-08-29T07:10:44.096Z,21.3
2017-08-29T07:11:43.414Z,21.3
2017-08-29T07:12:42.733Z,21.2
2017-08-29T07:13:41.413Z,21.1
2017-08-29T07:14:40.737Z,21.2
2017-08-29T07:15:40.050Z,21.4
2017-08-29T07:16:39.244Z,21.4
2017-08-29T07:17:38.683Z,21.4
2017-08-29T07:18:37.748Z,21.3
2017-08-29T07:19:37.303Z,21.3
2017-08-29T07:20:36.750Z,21.6
2017-08-29T07:21:35.816Z,21.6
2017-08-29T07:22:34.897Z,21.6
2017-08-29T07:23:34.342Z,21.6
2017-08-29T07:24:33.028Z,21.8
2017-08-29T07:25:32.848Z,21.8
2017-08-29T07:26:32.034Z,21.8
2017-08-29T07:27:31.360Z,21.8
2017-08-29T07:28:30.309Z,21.8
2017-08-29T07:29:29.752Z,21.8
2017-08-29T07:30:29.085Z,22
2017-08-29T07:31:28.520Z,22.1
2017-08-29T07:32:27.496Z,22.2
2017-08-29T07:33:27.063Z,22.3
2017-08-29T07:34:25.989Z,22.5
2017-08-29T07:35:25.419Z,22.6
2017-08-29T07:36:24.339Z,22.7
2017-08-29T07:37:23.520Z,22.6
2017-08-29T07:38:23.085Z,22.5
2017-08-29T07:40:21.146Z,22.6
2017-08-29T07:42:20.020Z,22.8
2017-08-29T07:43:19.336Z,22.8
2017-08-29T07:44:18.795Z,23
2017-08-29T07:45:17.868Z,22.9
2017-08-29T07:46:17.313Z,22.8
2017-08-29T07:47:16.117Z,22.7
2017-08-29T07:48:15.543Z,22.5
2017-08-29T07:49:14.600Z,22.3
2017-08-29T07:50:14.547Z,22.3
2017-08-29T07:51:13.230Z,22.4
2017-08-29T07:52:12.676Z,22.5
2017-08-29T07:53:12.012Z,22.5
2017-08-29T07:54:11.193Z,22.5
2017-08-29T07:55:10.521Z,22.5
2017-08-29T07:57:09.230Z,22.5
2017-08-29T07:58:08.667Z,22.5
2017-08-29T07:59:07.594Z,22.6
2017-08-29T08:00:06.791Z,22.6
2017-08-29T08:01:06.095Z,22.6
2017-08-29T08:02:05.271Z,22.5
2017-08-29T08:03:04.582Z,22.6
2017-08-29T08:04:03.906Z,22.6
2017-08-29T08:05:03.228Z,22.6
2017-08-29T08:06:02.929Z,22.6
2017-08-29T08:07:01.883Z,22.3
2017-08-29T08:08:01.034Z,22.3
2017-08-29T08:09:00.222Z,22.5
2017-08-29T08:09:59.787Z,22.7
2017-08-29T08:10:59.348Z,22.9
2017-08-29T08:11:58.281Z,22.8
2017-08-29T08:12:57.727Z,23
2017-08-29T08:13:56.912Z,23
2017-08-29T08:14:56.495Z,23
2017-08-29T08:15:55.681Z,23.1
2017-08-29T08:16:54.993Z,23.1
2017-08-29T08:17:54.046Z,23.1
2017-08-29T08:18:53.355Z,23
2017-08-29T08:19:52.906Z,22.9
2017-08-29T08:20:51.715Z,22.9
2017-08-29T08:24:49.201Z,23
2017-08-29T08:25:48.646Z,23
2017-08-29T08:26:18.766Z,23
2017-08-29T08:26:49.515Z,23
2017-08-29T08:27:19.760Z,23
2017-08-29T08:27:50.145Z,23.3
2017-08-29T08:28:20.392Z,23.3
2017-08-29T08:30:44.878Z,23.3
2017-08-29T08:31:43.938Z,23
2017-08-29T08:32:43.243Z,23.1
2017-08-29T08:33:42.551Z,23
2017-08-29T08:34:41.852Z,23.1
2017-08-29T08:35:41.034Z,23.1
2017-08-29T08:36:40.219Z,23.2
2017-08-29T08:37:39.654Z,23.4
2017-08-29T08:38:38.834Z,23.6
2017-08-29T08:39:09.714Z,23.6
2017-08-29T08:39:39.713Z,23.6
2017-08-29T08:40:10.460Z,23.6
2017-08-29T08:41:36.947Z,23.6
2017-08-29T08:42:36.508Z,23.6
2017-08-29T08:43:35.438Z,23.6
2017-08-29T08:44:34.497Z,23.6
2017-08-29T08:45:34.580Z,23.5
2017-08-29T08:46:33.653Z,23.5
2017-08-29T08:47:32.967Z,23.5
2017-08-29T08:48:32.407Z,23.5
2017-08-29T08:49:31.714Z,23.5
2017-08-29T08:50:30.530Z,23.3
2017-08-29T08:51:29.963Z,23.3
2017-08-29T08:52:29.399Z,23.1
2017-08-29T08:53:28.584Z,23
2017-08-29T08:54:27.768Z,23.1
2017-08-29T08:55:27.325Z,23.1
2017-08-29T08:56:26.522Z,23.3
2017-08-29T08:57:25.969Z,23.4
2017-08-29T08:58:25.154Z,23.5
2017-08-29T08:59:24.711Z,23.6
2017-08-29T09:00:24.169Z,23.5
2017-08-29T09:01:23.486Z,23.2
2017-08-29T09:02:22.671Z,23.2
2017-08-29T09:03:22.240Z,23.3
2017-08-29T09:04:21.294Z,23.3
2017-08-29T09:05:20.725Z,23.2
2017-08-29T09:06:20.037Z,23.3
2017-08-29T09:07:19.347Z,23.4
2017-08-29T09:08:18.786Z,23.5
2017-08-29T09:09:17.599Z,23.5
2017-08-29T09:11:16.549Z,23.6
2017-08-29T09:12:15.864Z,23.5
2017-08-29T09:13:15.421Z,23.5
2017-08-29T09:16:13.441Z,23.5
2017-08-29T09:18:11.881Z,23.6
2017-08-29T09:19:11.328Z,23.5
2017-08-29T09:20:10.504Z,23.6
2017-08-29T09:20:40.872Z,23.6
2017-08-29T09:21:11.118Z,23.6
2017-08-29T09:22:08.921Z,23.6
2017-08-29T09:23:08.361Z,23.5
2017-08-29T09:24:07.546Z,23.3
2017-08-29T09:25:07.488Z,23.3
2017-08-29T09:26:06.546Z,23.3
2017-08-29T09:27:05.974Z,23.4
2017-08-29T09:28:05.056Z,23.5
2017-08-29T09:29:04.737Z,23.5
2017-08-29T09:30:03.812Z,23.4
2017-08-29T09:31:03.127Z,23.4
2017-08-29T09:32:02.449Z,23.3
2017-08-29T09:33:01.773Z,23.2
2017-08-29T09:34:01.463Z,23.1
2017-08-29T09:35:00.509Z,23.1
2017-08-29T09:35:59.948Z,23.1
2017-08-29T09:36:59.506Z,23.2
2017-08-29T09:37:58.062Z,23.2
2017-08-29T09:38:57.875Z,23.3
2017-08-29T09:39:57.324Z,23.3
2017-08-29T09:40:56.637Z,23.3
2017-08-29T09:41:56.319Z,23.3
2017-08-29T09:42:55.248Z,23.3
2017-08-29T09:43:54.564Z,23.3
2017-08-29T09:44:53.622Z,23.3
2017-08-29T09:45:53.441Z,23.3
2017-08-29T09:46:52.620Z,23.4
2017-08-29T09:47:51.934Z,23.5
2017-08-29T09:48:51.479Z,23.5
2017-08-29T09:49:50.783Z,23.4
2017-08-29T09:50:50.223Z,23.4
2017-08-29T09:51:49.534Z,23.4
2017-08-29T09:52:48.849Z,23.3
2017-08-29T09:53:48.441Z,23.3
2017-08-29T09:54:47.354Z,23.3
2017-08-29T09:55:47.042Z,23.4
2017-08-29T09:56:45.980Z,23.3
2017-08-29T09:57:45.276Z,23.3
2017-08-29T09:58:45.096Z,23.3
2017-08-29T09:59:44.022Z,23.3
2017-08-29T10:00:44.096Z,23.3
2017-08-29T10:01:42.776Z,23.4
2017-08-29T10:02:42.088Z,23.4
2017-08-29T10:03:41.773Z,23.4
2017-08-29T10:04:41.209Z,23.4
2017-08-29T10:05:40.659Z,23.5
2017-08-29T10:06:39.729Z,23.5
2017-08-29T10:07:39.299Z,23.5
2017-08-29T10:08:38.617Z,23.6
2017-08-29T10:09:37.784Z,23.5
2017-08-29T10:10:37.609Z,23.5
2017-08-29T10:11:36.541Z,23.5
2017-08-29T10:12:35.849Z,23.5
2017-08-29T10:13:35.405Z,23.5
2017-08-29T10:14:34.687Z,23.5
2017-08-29T10:15:33.868Z,23.4
2017-08-29T10:16:33.425Z,23.4
2017-08-29T10:18:32.380Z,23.4
2017-08-29T10:19:31.943Z,23.3
2017-08-29T10:20:30.753Z,23.3
2017-08-29T10:21:30.566Z,23.3
2017-08-29T10:23:29.129Z,23.3
2017-08-29T10:24:28.565Z,23.4
2017-08-29T10:26:27.514Z,23.5
2017-08-29T10:27:26.702Z,23.4
2017-08-29T10:29:25.390Z,23.5
2017-08-29T10:30:24.829Z,23.5
2017-08-29T10:31:24.138Z,23.5
2017-08-29T10:32:23.195Z,23.5
2017-08-29T10:33:22.923Z,23.5
2017-08-29T10:34:22.354Z,23.3
2017-08-29T10:35:21.543Z,23.3
2017-08-29T10:36:21.106Z,23.2
2017-08-29T10:37:20.405Z,23.2
2017-08-29T10:38:19.845Z,23.2
2017-08-29T10:39:19.282Z,23.3
2017-08-29T10:40:18.839Z,23.3
2017-08-29T10:41:18.272Z,23.4
2017-08-29T10:42:17.473Z,23.5
2017-08-29T10:43:16.794Z,23.6
2017-08-29T10:44:16.227Z,23.6
2017-08-29T10:45:15.550Z,23.6
2017-08-29T10:47:14.510Z,23.6
2017-08-29T10:48:13.834Z,23.7
2017-08-29T10:49:13.397Z,23.8
2017-08-29T10:50:12.821Z,23.8
2017-08-29T10:51:12.129Z,23.8
2017-08-29T10:52:11.568Z,23.8
2017-08-29T10:53:10.754Z,23.8
2017-08-29T10:54:10.191Z,23.9
2017-08-29T10:55:09.627Z,24
2017-08-29T10:56:09.323Z,24
2017-08-29T10:57:08.638Z,24
2017-08-29T10:58:07.596Z,23.9
2017-08-29T10:58:37.714Z,23.9
2017-08-29T11:00:06.725Z,24
2017-08-29T11:01:06.039Z,24.1
2017-08-29T11:02:05.349Z,24.1
2017-08-29T11:03:05.032Z,24
2017-08-29T11:06:03.125Z,24
2017-08-29T11:07:02.690Z,24
2017-08-29T11:08:01.871Z,24
2017-08-29T11:09:01.191Z,24
2017-08-29T11:10:00.877Z,24
2017-08-29T11:11:00.189Z,24
2017-08-29T11:11:59.634Z,24.1
2017-08-29T11:12:58.817Z,24.1
2017-08-29T11:13:58.132Z,24
2017-08-29T11:14:58.194Z,24.1
2017-08-29T11:15:57.254Z,24.1
2017-08-29T11:16:56.568Z,24.1
2017-08-29T11:17:56.388Z,24.1
2017-08-29T11:18:55.953Z,24.1
2017-08-29T11:19:55.013Z,24.1
2017-08-29T11:20:54.326Z,24.1
2017-08-29T11:21:54.148Z,24.1
2017-08-29T11:22:53.464Z,24.1
2017-08-29T11:23:53.034Z,24.1
2017-08-29T11:24:52.093Z,24.2
2017-08-29T11:25:51.661Z,24.2
2017-08-29T11:26:50.843Z,24.1
2017-08-29T11:27:50.025Z,24.2
2017-08-29T11:28:49.722Z,24.2
2017-08-29T11:29:49.154Z,24.2
2017-08-29T11:30:48.481Z,24.3
2017-08-29T11:31:48.042Z,24.2
2017-08-29T11:32:47.612Z,24.2
2017-08-29T11:33:47.055Z,24.3
2017-08-29T11:34:46.487Z,24.3
2017-08-29T11:35:45.921Z,24.3
2017-08-29T11:36:45.377Z,24.4
2017-08-29T11:37:44.818Z,24.5
2017-08-29T11:38:44.132Z,24.5
2017-08-29T11:39:43.436Z,24.5
2017-08-29T11:40:42.625Z,24.5
2017-08-29T11:41:42.443Z,24.5
2017-08-29T11:42:41.868Z,24.4
2017-08-29T11:43:41.184Z,24.4
2017-08-29T11:44:41.132Z,24.4
2017-08-29T11:45:40.431Z,24.4
2017-08-29T11:46:40.084Z,24.4
2017-08-29T11:47:39.530Z,24.4
2017-08-29T11:48:38.713Z,24.5
2017-08-29T11:49:38.149Z,24.5
2017-08-29T11:50:37.835Z,24.6
2017-08-29T11:52:36.657Z,24.5
2017-08-29T11:53:36.090Z,24.5
2017-08-29T11:54:35.412Z,24.5
2017-08-29T11:55:34.738Z,24.5
2017-08-29T11:56:34.570Z,24.5
2017-08-29T11:57:34.026Z,24.5
2017-08-29T11:58:04.393Z,24.5
2017-08-29T11:58:34.512Z,24.5
2017-08-29T11:59:32.818Z,24.6
2017-08-29T12:00:31.870Z,24.6
2017-08-29T12:01:31.432Z,24.6
2017-08-29T12:02:31.124Z,24.5
2017-08-29T12:03:30.194Z,24.6
2017-08-29T12:04:30.010Z,24.6
2017-08-29T12:05:29.445Z,24.6
2017-08-29T12:06:28.999Z,24.6
2017-08-29T12:07:28.442Z,24.6
2017-08-29T12:08:27.755Z,24.6
2017-08-29T12:08:57.861Z,24.6
2017-08-29T12:09:28.491Z,24.7
2017-08-29T12:09:58.990Z,24.7
2017-08-29T12:12:25.625Z,24.7
2017-08-29T12:13:25.187Z,24.7
2017-08-29T12:14:24.637Z,24.7
2017-08-29T12:15:23.956Z,24.7
2017-08-29T12:17:23.283Z,24.8
2017-08-29T12:18:22.852Z,24.8
2017-08-29T12:19:22.165Z,24.8
2017-08-29T12:20:21.478Z,24.8
2017-08-29T12:22:20.689Z,24.8
2017-08-29T12:23:20.248Z,24.9
2017-08-29T12:25:18.938Z,24.8
2017-08-29T12:26:18.151Z,24.8
2017-08-29T12:27:17.715Z,24.7
2017-08-29T12:28:17.660Z,24.7
2017-08-29T12:30:16.746Z,24.7
2017-08-29T12:31:16.192Z,24.8
2017-08-29T12:32:15.626Z,24.8
2017-08-29T12:33:15.220Z,24.8
2017-08-29T12:34:14.403Z,24.8
2017-08-29T12:35:13.839Z,24.8
2017-08-29T12:36:13.646Z,24.9
2017-08-29T12:37:12.960Z,24.9
2017-08-29T12:40:11.674Z,24.8
2017-08-29T12:41:10.989Z,24.8
2017-08-29T12:42:10.545Z,24.9
2017-08-29T12:43:09.817Z,24.8
2017-08-29T12:44:09.768Z,24.8
2017-08-29T12:45:09.080Z,24.8
2017-08-29T12:46:08.532Z,25
2017-08-29T12:47:07.842Z,25
2017-08-29T12:48:07.281Z,25
2017-08-29T12:49:07.226Z,25
2017-08-29T12:50:06.295Z,25
2017-08-29T12:52:05.633Z,25
2017-08-29T12:53:05.325Z,24.9
2017-08-29T12:54:04.751Z,24.8
2017-08-29T12:55:04.191Z,24.8
2017-08-29T12:56:03.869Z,24.8
2017-08-29T12:57:03.303Z,24.8
2017-08-29T13:00:02.028Z,24.9
2017-08-29T13:02:00.865Z,24.9
2017-08-29T13:03:00.308Z,24.8
2017-08-29T13:03:59.869Z,24.7
2017-08-29T13:04:59.444Z,24.7
2017-08-29T13:05:59.011Z,24.8
2017-08-29T13:06:58.454Z,24.8
2017-08-29T13:08:57.698Z,24.8
2017-08-29T13:09:56.882Z,24.8
2017-08-29T13:10:56.935Z,24.9
2017-08-29T13:11:56.137Z,24.9
2017-08-29T13:12:55.715Z,24.9
2017-08-29T13:13:55.022Z,24.9
2017-08-29T13:14:55.074Z,24.8
2017-08-29T13:15:54.274Z,24.9
2017-08-29T13:16:53.580Z,25
2017-08-29T13:17:53.633Z,25
2017-08-29T13:18:53.068Z,24.9
2017-08-29T13:19:52.373Z,24.9
2017-08-29T13:20:52.198Z,25
2017-08-29T13:21:51.641Z,25
2017-08-29T13:22:50.951Z,25
2017-08-29T13:25:49.810Z,25
2017-08-29T13:26:49.510Z,25
2017-08-29T13:27:48.831Z,25
2017-08-29T13:28:48.277Z,25
2017-08-29T13:29:47.963Z,25.1
2017-08-29T13:31:47.169Z,25.3
2017-08-29T13:32:46.488Z,25.3
2017-08-29T13:33:45.793Z,25.3
2017-08-29T13:34:45.868Z,25.2
2017-08-29T13:36:44.568Z,25
2017-08-29T13:37:44.265Z,25
2017-08-29T13:38:44.085Z,25
2017-08-29T13:39:43.393Z,25
2017-08-29T13:40:42.719Z,25
2017-08-29T13:41:42.541Z,25.1
2017-08-29T13:42:41.837Z,25.1
2017-08-29T13:43:41.521Z,25
2017-08-29T13:45:41.110Z,25.1
2017-08-29T13:46:40.549Z,25.1
2017-08-29T13:47:39.991Z,25.1
2017-08-29T13:48:39.425Z,25.2
2017-08-29T13:51:38.148Z,25.2
2017-08-29T13:52:37.836Z,25.2
2017-08-29T13:53:37.022Z,25.3
2017-08-29T13:54:36.841Z,25.2
2017-08-29T13:59:34.851Z,25.3
2017-08-29T14:00:34.156Z,25.3
2017-08-29T14:01:33.844Z,25.3